createdAt,value
2023-04-10T00:00:20.135Z,3.03
2023-04-10T00:02:47.280Z,1.77
2023-04-10T00:05:13.994Z,1.67
2023-04-10T00:07:40.753Z,1.35
2023-04-10T00:10:07.149Z,1.73
2023-04-10T00:12:33.520Z,1.48
2023-04-10T00:14:59.882Z,2.38
2023-04-10T00:17:26.265Z,1.98
2023-04-10T00:19:52.599Z,3.25
2023-04-10T00:22:18.925Z,3.63
2023-04-10T00:24:45.284Z,2.17
2023-04-10T00:27:11.595Z,4.07
2023-04-10T00:29:37.992Z,2.35
2023-04-10T00:32:04.385Z,1.65
2023-04-10T00:34:30.691Z,2.63
2023-04-10T00:36:57.075Z,2.35
2023-04-10T00:39:23.939Z,1.98
2023-04-10T00:41:50.470Z,2.47
2023-04-10T00:44:16.923Z,3.13
2023-04-10T00:46:43.539Z,2.45
2023-04-10T00:49:09.950Z,1.73
2023-04-10T00:51:39.282Z,1.42
2023-04-10T00:54:06.584Z,2.33
2023-04-10T00:56:33.350Z,1.77
2023-04-10T00:58:59.737Z,1.58
2023-04-10T01:01:26.283Z,1.20
2023-04-10T01:03:53.560Z,1.65
2023-04-10T01:06:38.604Z,1.58
2023-04-10T01:09:08.306Z,1.17
2023-04-10T01:11:43.796Z,1.02
2023-04-10T01:14:22.399Z,0.90
2023-04-10T01:16:53.966Z,1.50
2023-04-10T01:19:37.868Z,1.45
2023-04-10T01:22:05.185Z,1.10
2023-04-10T01:24:34.282Z,1.23
2023-04-10T01:27:09.880Z,0.52
2023-04-10T01:29:36.631Z,0.73
2023-04-10T01:32:04.853Z,1.40
2023-04-10T01:34:51.920Z,2.15
2023-04-10T01:37:21.376Z,1.48
2023-04-10T01:39:50.483Z,1.98
2023-04-10T01:42:17.904Z,2.33
2023-04-10T01:44:45.871Z,2.42
2023-04-10T01:47:13.064Z,2.15
2023-04-10T01:49:44.510Z,2.35
2023-04-10T01:52:11.583Z,2.15
2023-04-10T01:54:38.714Z,2.35
2023-04-10T01:57:05.363Z,2.38
2023-04-10T01:59:31.940Z,1.67
2023-04-10T02:01:59.175Z,1.98
2023-04-10T02:04:29.196Z,2.03
2023-04-10T02:06:55.730Z,1.85
2023-04-10T02:09:25.824Z,1.25
2023-04-10T02:11:52.177Z,1.73
2023-04-10T02:14:20.317Z,2.80
2023-04-10T02:16:47.006Z,2.15
2023-04-10T02:19:13.966Z,2.92
2023-04-10T02:21:42.141Z,2.58
2023-04-10T02:24:08.639Z,2.92
2023-04-10T02:26:44.921Z,2.78
2023-04-10T02:29:11.622Z,3.45
2023-04-10T02:31:38.180Z,4.07
2023-04-10T02:34:04.666Z,4.10
2023-04-10T02:36:31.065Z,3.00
2023-04-10T02:38:57.360Z,3.15
2023-04-10T02:41:24.318Z,2.95
2023-04-10T02:43:50.981Z,2.55
2023-04-10T02:46:17.576Z,1.67
2023-04-10T02:48:43.913Z,1.35
2023-04-10T02:51:10.527Z,1.42
2023-04-10T02:53:37.190Z,1.48
2023-04-10T02:56:03.845Z,1.55
2023-04-10T02:58:30.629Z,3.03
2023-04-10T03:00:57.822Z,2.88
2023-04-10T03:03:24.537Z,4.25
2023-04-10T03:05:51.100Z,4.20
2023-04-10T03:08:17.665Z,6.00
2023-04-10T03:10:44.488Z,6.53
2023-04-10T03:13:10.949Z,5.22
2023-04-10T03:15:38.048Z,4.53
2023-04-10T03:18:05.623Z,4.50
2023-04-10T03:20:38.948Z,7.20
2023-04-10T03:23:05.780Z,6.68
2023-04-10T03:25:33.956Z,7.07
2023-04-10T03:28:00.390Z,11.68
2023-04-10T03:30:27.018Z,11.27
2023-04-10T03:32:53.371Z,11.15
2023-04-10T03:35:19.766Z,12.35
2023-04-10T03:37:46.223Z,9.48
2023-04-10T03:40:12.711Z,8.65
2023-04-10T03:42:39.103Z,7.05
2023-04-10T03:45:06.983Z,9.25
2023-04-10T03:47:34.094Z,8.45
2023-04-10T03:50:00.764Z,5.05
2023-04-10T03:52:28.086Z,4.95
2023-04-10T03:54:54.689Z,3.97
2023-04-10T03:57:21.370Z,2.25
2023-04-10T03:59:48.087Z,2.55
2023-04-10T04:02:14.544Z,1.88
2023-04-10T04:04:41.210Z,2.05
2023-04-10T04:07:07.623Z,1.30
2023-04-10T04:09:34.272Z,1.40
2023-04-10T04:12:00.599Z,1.63
2023-04-10T04:14:27.009Z,1.33
2023-04-10T04:16:53.388Z,2.45
2023-04-10T04:19:19.763Z,1.20
2023-04-10T04:21:46.052Z,1.20
2023-04-10T04:24:12.417Z,2.20
2023-04-10T04:26:38.738Z,2.85
2023-04-10T04:29:05.292Z,3.72
2023-04-10T04:31:32.946Z,3.88
2023-04-10T04:33:59.802Z,5.07
2023-04-10T04:36:27.676Z,4.85
2023-04-10T04:38:54.406Z,2.67
2023-04-10T04:41:20.785Z,3.83
2023-04-10T04:43:51.354Z,3.78
2023-04-10T04:46:17.801Z,4.82
2023-04-10T04:48:44.233Z,3.83
2023-04-10T04:51:10.607Z,4.05
2023-04-10T04:53:37.020Z,5.70
2023-04-10T04:56:03.436Z,3.33
2023-04-10T04:58:29.787Z,2.65
2023-04-10T05:00:56.151Z,2.33
2023-04-10T05:03:23.043Z,2.88
2023-04-10T05:05:49.624Z,2.60
2023-04-10T05:08:15.990Z,2.28
2023-04-10T05:10:42.351Z,2.88
2023-04-10T05:13:08.755Z,2.72
2023-04-10T05:15:35.581Z,1.98
2023-04-10T05:18:01.944Z,1.67
2023-04-10T05:20:28.480Z,1.50
2023-04-10T05:22:54.867Z,3.22
2023-04-10T05:25:21.343Z,3.45
2023-04-10T05:27:47.653Z,2.42
2023-04-10T05:30:13.941Z,3.30
2023-04-10T05:32:40.277Z,4.30
2023-04-10T05:35:06.944Z,2.45
2023-04-10T05:37:33.545Z,4.05
2023-04-10T05:40:00.002Z,3.50
2023-04-10T05:42:26.407Z,2.72
2023-04-10T05:44:52.774Z,1.98
2023-04-10T05:47:19.418Z,1.98
2023-04-10T05:49:45.876Z,1.35
2023-04-10T05:52:12.260Z,1.38
2023-04-10T05:54:38.617Z,1.27
2023-04-10T05:57:04.916Z,2.42
2023-04-10T05:59:31.273Z,2.70
2023-04-10T06:01:57.699Z,2.42
2023-04-10T06:04:24.199Z,1.60
2023-04-10T06:06:50.774Z,2.22
2023-04-10T06:09:17.125Z,2.08
2023-04-10T06:11:43.528Z,1.35
2023-04-10T06:14:09.821Z,0.80
2023-04-10T06:16:36.896Z,1.02
2023-04-10T06:19:03.476Z,1.67
2023-04-10T06:21:29.821Z,2.97
2023-04-10T06:23:56.619Z,3.35
2023-04-10T06:26:24.451Z,4.47
2023-04-10T06:28:50.840Z,3.78
2023-04-10T06:31:19.255Z,2.03
2023-04-10T06:33:45.573Z,2.80
2023-04-10T06:36:11.964Z,2.30
2023-04-10T06:38:38.354Z,1.90
2023-04-10T06:41:05.873Z,3.40
2023-04-10T06:43:35.873Z,3.35
2023-04-10T06:46:05.619Z,2.75
2023-04-10T06:48:32.644Z,3.40
2023-04-10T06:51:00.907Z,3.42
2023-04-10T06:53:27.279Z,3.03
2023-04-10T06:55:53.791Z,3.15
2023-04-10T06:58:20.928Z,3.13
2023-04-10T07:00:47.403Z,3.38
2023-04-10T07:03:13.882Z,4.20
2023-04-10T07:05:42.102Z,4.07
2023-04-10T07:08:08.936Z,5.65
2023-04-10T07:10:35.596Z,4.90
2023-04-10T07:13:02.013Z,5.70
2023-04-10T07:15:28.399Z,5.45
2023-04-10T07:17:56.240Z,6.05
2023-04-10T07:20:22.643Z,8.73
2023-04-10T07:22:49.189Z,5.68
2023-04-10T07:25:15.696Z,6.03
2023-04-10T07:27:42.134Z,6.18
2023-04-10T07:30:08.853Z,8.38
2023-04-10T07:32:35.374Z,9.23
2023-04-10T07:35:01.844Z,7.50
2023-04-10T07:37:28.276Z,7.80
2023-04-10T07:39:54.723Z,7.10
2023-04-10T07:42:21.151Z,8.48
2023-04-10T07:44:47.611Z,8.65
2023-04-10T07:47:14.203Z,7.60
2023-04-10T07:49:41.236Z,5.22
2023-04-10T07:52:07.684Z,4.93
2023-04-10T07:54:34.386Z,7.80
2023-04-10T07:57:01.096Z,5.82
2023-04-10T07:59:27.876Z,6.22
2023-04-10T08:01:54.671Z,8.38
2023-04-10T08:04:21.374Z,6.95
2023-04-10T08:06:47.957Z,7.30
2023-04-10T08:09:14.296Z,7.47
2023-04-10T08:11:40.706Z,6.03
2023-04-10T08:14:07.187Z,6.38
2023-04-10T08:16:34.552Z,6.97
2023-04-10T08:19:01.483Z,5.68
2023-04-10T08:21:28.573Z,6.13
2023-04-10T08:23:55.871Z,8.00
2023-04-10T08:26:22.496Z,5.65
2023-04-10T08:28:50.653Z,5.03
2023-04-10T08:31:17.390Z,5.95
2023-04-10T08:33:43.742Z,6.97
2023-04-10T08:36:10.370Z,6.05
2023-04-10T08:38:36.925Z,4.72
2023-04-10T08:41:03.383Z,6.05
2023-04-10T08:43:30.266Z,6.15
2023-04-10T08:45:56.686Z,5.88
2023-04-10T08:48:26.032Z,6.32
2023-04-10T08:50:52.450Z,5.70
2023-04-10T08:53:20.799Z,7.38
2023-04-10T08:55:47.241Z,5.40
2023-04-10T08:58:13.991Z,6.50
2023-04-10T09:00:40.419Z,7.32
2023-04-10T09:03:11.920Z,5.15
2023-04-10T09:05:38.500Z,3.92
2023-04-10T09:08:05.016Z,5.63
2023-04-10T09:10:31.614Z,6.13
2023-04-10T09:12:58.035Z,3.47
2023-04-10T09:15:24.449Z,5.32
2023-04-10T09:17:58.500Z,5.95
2023-04-10T09:20:25.939Z,4.20
2023-04-10T09:22:52.576Z,3.72
2023-04-10T09:25:32.461Z,4.18
2023-04-10T09:28:02.741Z,3.85
2023-04-10T09:30:36.527Z,4.22
2023-04-10T09:33:03.768Z,4.57
2023-04-10T09:35:38.245Z,5.45
2023-04-10T09:38:14.148Z,3.58
2023-04-10T09:40:41.129Z,4.95
2023-04-10T09:43:36.791Z,3.95
2023-04-10T09:46:03.207Z,4.07
2023-04-10T09:48:29.563Z,3.80
2023-04-10T09:50:56.637Z,4.40
2023-04-10T09:53:23.072Z,3.58
2023-04-10T09:55:49.955Z,4.50
2023-04-10T09:58:16.865Z,3.47
2023-04-10T10:00:47.638Z,4.28
2023-04-10T10:03:15.051Z,4.30
2023-04-10T10:05:42.631Z,3.75
2023-04-10T10:08:12.662Z,4.68
2023-04-10T10:10:41.210Z,3.63
2023-04-10T10:13:08.502Z,3.53
2023-04-10T10:15:45.833Z,4.13
2023-04-10T10:18:15.580Z,4.07
2023-04-10T10:20:44.273Z,4.18
2023-04-10T10:23:10.765Z,3.67
2023-04-10T10:25:37.550Z,4.40
2023-04-10T10:28:04.632Z,3.65
2023-04-10T10:30:35.179Z,3.53
2023-04-10T10:33:02.711Z,4.97
2023-04-10T10:35:32.175Z,3.70
2023-04-10T10:37:59.874Z,3.80
2023-04-10T10:40:32.423Z,3.63
2023-04-10T10:43:04.584Z,4.13
2023-04-10T10:45:36.717Z,4.47
2023-04-10T10:48:03.198Z,3.92
2023-04-10T10:50:49.562Z,4.25
2023-04-10T10:53:34.929Z,3.78
2023-04-10T10:56:19.438Z,5.10
2023-04-10T10:58:49.487Z,4.10
2023-04-10T11:01:16.252Z,5.88
2023-04-10T11:03:44.815Z,4.10
2023-04-10T11:06:12.970Z,3.78
2023-04-10T11:08:44.451Z,4.72
2023-04-10T11:11:24.264Z,4.85
2023-04-10T11:13:56.116Z,4.75
2023-04-10T11:18:56.080Z,3.60
2023-04-10T11:21:32.894Z,5.60
2023-04-10T11:23:59.439Z,3.83
2023-04-10T11:26:41.549Z,2.97
2023-04-10T11:31:35.513Z,3.35
2023-04-10T11:34:06.117Z,3.90
2023-04-10T11:36:33.316Z,2.60
2023-04-10T11:39:05.861Z,3.40
2023-04-10T11:41:33.315Z,4.47
2023-04-10T11:44:00.578Z,4.07
2023-04-10T11:46:27.182Z,4.35
2023-04-10T11:48:55.862Z,3.35
2023-04-10T11:51:22.477Z,3.28
2023-04-10T11:53:48.891Z,2.83
2023-04-10T11:56:19.390Z,3.70
2023-04-10T11:58:45.807Z,5.70
2023-04-10T12:01:14.523Z,3.53
2023-04-10T12:03:44.422Z,2.10
2023-04-10T12:06:12.563Z,2.50
2023-04-10T12:08:51.021Z,3.20
2023-04-10T12:11:18.211Z,2.70
2023-04-10T12:13:44.552Z,3.38
2023-04-10T12:16:11.152Z,3.45
2023-04-10T12:18:37.807Z,2.88
2023-04-10T12:21:05.604Z,3.00
2023-04-10T12:23:33.637Z,3.80
2023-04-10T12:26:10.713Z,3.42
2023-04-10T12:28:38.027Z,4.38
2023-04-10T12:31:04.542Z,3.17
2023-04-10T12:33:31.216Z,2.85
2023-04-10T12:35:57.729Z,2.78
2023-04-10T12:38:41.089Z,3.20
2023-04-10T12:41:08.020Z,2.20
2023-04-10T12:43:38.432Z,2.80
2023-04-10T12:46:05.361Z,2.42
2023-04-10T12:48:31.856Z,4.65
2023-04-10T12:50:58.734Z,2.83
2023-04-10T12:53:25.625Z,2.85
2023-04-10T12:56:00.897Z,3.20
2023-04-10T12:58:31.422Z,3.40
2023-04-10T13:01:09.150Z,2.45
2023-04-10T13:03:38.706Z,3.65
2023-04-10T13:06:06.309Z,3.10
2023-04-10T13:08:32.776Z,2.65
2023-04-10T13:11:03.158Z,3.10
2023-04-10T13:13:33.016Z,2.90
2023-04-10T13:15:59.919Z,2.45
2023-04-10T13:18:26.531Z,3.13
2023-04-10T13:20:52.916Z,3.45
2023-04-10T13:23:19.304Z,3.00
2023-04-10T13:25:45.823Z,3.60
2023-04-10T13:28:12.291Z,2.10
2023-04-10T13:30:40.590Z,3.67
2023-04-10T13:33:07.579Z,3.10
2023-04-10T13:35:34.103Z,3.17
2023-04-10T13:38:00.955Z,2.70
2023-04-10T13:40:27.641Z,2.72
2023-04-10T13:42:54.177Z,2.10
2023-04-10T13:45:20.602Z,3.70
2023-04-10T13:47:46.953Z,3.08
2023-04-10T13:50:13.404Z,2.65
2023-04-10T13:52:39.883Z,2.38
2023-04-10T13:55:06.581Z,2.67
2023-04-10T13:57:32.994Z,3.38
2023-04-10T13:59:59.358Z,2.65
2023-04-10T14:02:25.961Z,2.50
2023-04-10T14:04:52.456Z,2.70
2023-04-10T14:07:19.134Z,2.83
2023-04-10T14:09:47.090Z,2.67
2023-04-10T14:12:16.295Z,2.50
2023-04-10T14:14:43.387Z,3.60
2023-04-10T14:17:09.760Z,2.67
2023-04-10T14:19:37.460Z,3.13
2023-04-10T14:22:03.787Z,2.42
2023-04-10T14:24:30.271Z,2.45
2023-04-10T14:26:58.509Z,2.50
2023-04-10T14:29:34.918Z,2.70
2023-04-10T14:32:04.214Z,2.50
2023-04-10T14:34:30.584Z,1.95
2023-04-10T14:36:56.913Z,1.90
2023-04-10T14:39:24.498Z,3.67
2023-04-10T14:41:51.049Z,2.67
2023-04-10T14:44:17.794Z,2.72
2023-04-10T14:46:44.496Z,2.70
2023-04-10T14:49:12.154Z,2.88
2023-04-10T14:51:38.566Z,2.40
2023-04-10T14:54:05.520Z,2.22
2023-04-10T14:56:32.966Z,2.85
2023-04-10T14:58:59.341Z,2.08
2023-04-10T15:01:25.740Z,2.30
2023-04-10T15:03:53.544Z,3.20
2023-04-10T15:06:20.401Z,2.33
2023-04-10T15:08:46.931Z,2.15
2023-04-10T15:11:13.221Z,2.50
2023-04-10T15:13:39.590Z,2.13
2023-04-10T15:16:06.443Z,1.50
2023-04-10T15:18:32.795Z,2.75
2023-04-10T15:20:59.546Z,2.42
2023-04-10T15:23:26.730Z,2.60
2023-04-10T15:25:53.502Z,3.13
2023-04-10T15:28:20.189Z,2.58
2023-04-10T15:30:48.522Z,1.85
2023-04-10T15:33:14.918Z,3.60
2023-04-10T15:35:41.434Z,2.80
2023-04-10T15:38:09.975Z,2.47
2023-04-10T15:40:36.442Z,2.28
2023-04-10T15:43:02.825Z,1.50
2023-04-10T15:45:29.154Z,1.60
2023-04-10T15:47:55.881Z,2.58
2023-04-10T15:50:22.271Z,2.50
2023-04-10T15:52:48.611Z,1.90
2023-04-10T15:55:15.805Z,2.47
2023-04-10T15:57:42.229Z,2.42
2023-04-10T16:00:08.913Z,1.90
2023-04-10T16:02:35.390Z,1.63
2023-04-10T16:05:02.018Z,2.45
2023-04-10T16:07:28.465Z,3.30
2023-04-10T16:09:56.768Z,3.00
2023-04-10T16:12:23.116Z,2.50
2023-04-10T16:14:49.456Z,1.73
2023-04-10T16:17:16.115Z,1.98
2023-04-10T16:19:42.446Z,1.85
2023-04-10T16:22:08.800Z,2.33
2023-04-10T16:24:35.154Z,2.63
2023-04-10T16:27:02.072Z,2.38
2023-04-10T16:29:28.598Z,2.15
2023-04-10T16:31:54.996Z,1.85
2023-04-10T16:34:21.391Z,1.45
2023-04-10T16:36:47.758Z,2.75
2023-04-10T16:39:14.076Z,1.65
2023-04-10T16:41:40.420Z,1.52
2023-04-10T16:44:06.863Z,2.97
2023-04-10T16:46:33.243Z,1.92
2023-04-10T16:48:59.694Z,1.88
2023-04-10T16:51:26.083Z,1.60
2023-04-10T16:53:52.630Z,2.22
2023-04-10T16:56:19.005Z,2.10
2023-04-10T16:58:45.820Z,1.92
2023-04-10T17:01:19.374Z,2.00
2023-04-10T17:03:47.367Z,2.05
2023-04-10T17:06:14.552Z,2.05
2023-04-10T17:08:40.925Z,3.38
2023-04-10T17:11:07.260Z,2.25
2023-04-10T17:13:35.676Z,1.83
2023-04-10T17:16:02.006Z,1.83
2023-04-10T17:18:29.707Z,1.92
2023-04-10T17:20:56.103Z,2.28
2023-04-10T17:23:22.438Z,1.58
2023-04-10T17:25:48.985Z,1.92
2023-04-10T17:28:15.433Z,1.50
2023-04-10T17:30:43.281Z,3.92
2023-04-10T17:33:09.728Z,2.97
2023-04-10T17:35:36.289Z,2.10
2023-04-10T17:38:02.647Z,1.90
2023-04-10T17:40:29.204Z,3.22
2023-04-10T17:42:55.934Z,1.88
2023-04-10T17:45:22.230Z,1.85
2023-04-10T17:47:48.659Z,1.70
2023-04-10T17:50:15.180Z,1.83
2023-04-10T17:52:41.564Z,1.92
2023-04-10T17:55:08.210Z,2.10
2023-04-10T17:57:34.551Z,1.73
2023-04-10T18:00:00.946Z,2.85
2023-04-10T18:02:27.346Z,3.42
2023-04-10T18:04:54.525Z,3.60
2023-04-10T18:07:20.810Z,6.03
2023-04-10T18:09:47.283Z,10.77
2023-04-10T18:12:13.589Z,10.68
2023-04-10T18:14:39.945Z,8.35
2023-04-10T18:17:06.382Z,8.35
2023-04-10T18:19:32.927Z,9.65
2023-04-10T18:21:59.451Z,8.02
2023-04-10T18:24:25.794Z,9.63
2023-04-10T18:26:52.118Z,7.65
2023-04-10T18:29:18.574Z,7.43
2023-04-10T18:31:44.958Z,8.48
2023-04-10T18:34:11.639Z,5.82
2023-04-10T18:36:38.127Z,4.53
2023-04-10T18:39:04.873Z,3.97
2023-04-10T18:41:31.350Z,3.95
2023-04-10T18:44:04.750Z,2.22
2023-04-10T18:46:32.695Z,1.67
2023-04-10T18:49:00.681Z,2.25
2023-04-10T18:51:27.543Z,2.42
2023-04-10T18:53:54.120Z,2.75
2023-04-10T18:56:20.667Z,2.17
2023-04-10T18:58:49.156Z,2.20
2023-04-10T19:01:17.592Z,2.42
2023-04-10T19:03:44.351Z,5.13
2023-04-10T19:06:10.869Z,2.47
2023-04-10T19:08:37.625Z,2.28
2023-04-10T19:11:04.977Z,2.25
2023-04-10T19:13:31.339Z,2.25
2023-04-10T19:15:57.694Z,2.85
2023-04-10T19:18:24.073Z,3.95
2023-04-10T19:20:53.083Z,6.72
2023-04-10T19:23:20.417Z,4.10
2023-04-10T19:25:47.005Z,2.35
2023-04-10T19:28:13.347Z,2.97
2023-04-10T19:30:39.692Z,2.20
2023-04-10T19:33:06.196Z,2.85
2023-04-10T19:35:32.669Z,2.78
2023-04-10T19:37:58.983Z,2.13
2023-04-10T19:40:25.386Z,2.95
2023-04-10T19:42:51.722Z,3.45
2023-04-10T19:45:18.115Z,2.60
2023-04-10T19:47:44.549Z,2.60
2023-04-10T19:50:10.978Z,2.55
2023-04-10T19:52:37.712Z,2.13
2023-04-10T19:55:04.211Z,1.83
2023-04-10T19:57:30.511Z,2.75
2023-04-10T19:59:57.028Z,2.30
2023-04-10T20:02:23.565Z,2.97
2023-04-10T20:04:50.149Z,3.13
2023-04-10T20:07:16.508Z,2.38
2023-04-10T20:09:42.827Z,2.20
2023-04-10T20:12:09.715Z,3.50
2023-04-10T20:14:36.000Z,2.42
2023-04-10T20:17:02.277Z,2.17
2023-04-10T20:19:28.790Z,2.42
2023-04-10T20:21:55.272Z,3.60
2023-04-10T20:24:21.565Z,1.92
2023-04-10T20:26:48.030Z,3.58
2023-04-10T20:29:14.416Z,2.63
2023-04-10T20:31:40.818Z,2.40
2023-04-10T20:34:07.215Z,3.05
2023-04-10T20:36:34.365Z,4.45
2023-04-10T20:39:00.870Z,2.50
2023-04-10T20:41:27.903Z,2.80
2023-04-10T20:43:55.746Z,2.75
2023-04-10T20:46:22.271Z,3.58
2023-04-10T20:48:48.792Z,3.67
2023-04-10T20:51:15.141Z,4.32
2023-04-10T20:53:41.475Z,3.90
2023-04-10T20:56:08.006Z,2.65
2023-04-10T20:58:34.342Z,2.55
2023-04-10T21:01:00.759Z,3.22
2023-04-10T21:03:27.287Z,4.35
2023-04-10T21:05:54.124Z,3.78
2023-04-10T21:08:20.597Z,3.22
2023-04-10T21:10:47.307Z,2.42
2023-04-10T21:13:14.618Z,4.32
2023-04-10T21:15:41.643Z,4.00
2023-04-10T21:18:08.369Z,4.45
2023-04-10T21:20:34.748Z,2.75
2023-04-10T21:23:01.562Z,2.13
2023-04-10T21:25:27.988Z,2.47
2023-04-10T21:27:54.334Z,1.67
2023-04-10T21:30:21.951Z,1.40
2023-04-10T21:32:48.495Z,1.80
2023-04-10T21:35:14.854Z,1.20
2023-04-10T21:37:41.141Z,1.52
2023-04-10T21:40:07.842Z,0.82
2023-04-10T21:42:36.706Z,1.00
2023-04-10T21:45:03.371Z,0.60
2023-04-10T21:47:29.781Z,0.90
2023-04-10T21:49:56.068Z,2.05
2023-04-10T21:52:22.522Z,1.70
2023-04-10T21:54:49.336Z,1.95
2023-04-10T21:57:15.737Z,1.70
2023-04-10T21:59:42.173Z,2.08
2023-04-10T22:02:10.613Z,2.17
2023-04-10T22:04:44.352Z,1.65
2023-04-10T22:07:18.133Z,2.47
2023-04-10T22:09:44.528Z,1.52
2023-04-10T22:12:10.996Z,2.28
2023-04-10T22:14:37.300Z,3.08
2023-04-10T22:17:03.705Z,2.25
2023-04-10T22:19:30.305Z,1.60
2023-04-10T22:21:56.899Z,1.30
2023-04-10T22:24:23.217Z,0.70
2023-04-10T22:26:49.638Z,1.27
2023-04-10T22:29:16.257Z,1.00
2023-04-10T22:31:43.412Z,1.67
2023-04-10T22:34:10.389Z,1.58
2023-04-10T22:36:36.951Z,0.93
2023-04-10T22:39:03.699Z,0.65
2023-04-10T22:41:30.608Z,0.40
2023-04-10T22:43:56.987Z,0.50
2023-04-10T22:46:23.395Z,0.45
2023-04-10T22:48:49.714Z,0.40
2023-04-10T22:51:16.072Z,0.90
2023-04-10T22:53:42.446Z,0.40
2023-04-10T22:56:09.470Z,0.40
2023-04-10T22:58:36.482Z,0.65
2023-04-10T23:01:02.814Z,0.85
2023-04-10T23:03:29.156Z,0.28
2023-04-10T23:05:55.661Z,0.30
2023-04-10T23:08:22.085Z,0.30
2023-04-10T23:10:48.396Z,0.20
2023-04-10T23:13:14.723Z,0.20
2023-04-10T23:15:41.114Z,0.20
2023-04-10T23:18:07.456Z,0.15
2023-04-10T23:20:35.033Z,0.10
2023-04-10T23:23:01.383Z,0.38
2023-04-10T23:25:27.742Z,0.20
2023-04-10T23:27:54.412Z,0.10
2023-04-10T23:30:20.756Z,1.35
2023-04-10T23:32:47.161Z,0.20
2023-04-10T23:35:13.529Z,0.10
2023-04-10T23:37:39.813Z,0.10
2023-04-10T23:40:06.522Z,0.20
2023-04-10T23:42:32.810Z,0.40
2023-04-10T23:44:59.145Z,0.75
2023-04-10T23:47:25.555Z,0.40
2023-04-10T23:49:51.883Z,0.63
2023-04-10T23:52:18.280Z,1.25
2023-04-10T23:54:44.650Z,1.20
2023-04-10T23:57:11.041Z,0.80
2023-04-10T23:59:37.445Z,1.25
